KAIA/AIA METAR and TAF weather

Enter ICAO airport designator
Station Type Date Time Source
KAIA METAR 2021/01/16 02:53 UTC NOAA

KAIA 160253Z AUTO 01006KT 10SM CLR M05/M15 A3000 RMK AO2 SLP199 6//// T10501150 58022 PNO


Station Type Date Time Source
KAIA Decoded METAR 2021/01/16 02:53 UTC NOAA

ALLIANCE MUNICIPAL AIRPORT, NE, United States (KAIA) 42-03N 102-48W 1196M
Jan 15, 2021 - 09:53 PM EST / 2021.01.16 0253 UTC
Wind: from the N (010 degrees) at 7 MPH (6 KT):0
Visibility: 10 mile(s):0
Sky conditions: clear
Temperature: 23.0 F (-5.0 C)
Windchill: 14 F (-10 C):1
Dew Point: 5.0 F (-15.0 C)
Relative Humidity: 45%
Pressure (altimeter): 30 in. Hg (1015 hPa)
Pressure tendency: 0.06 inches (2.2 hPa) lower than three hours ago
ob: KAIA 160253Z AUTO 01006KT 10SM CLR M05/M15 A3000 RMK AO2 SLP199 6//// T10501150 58022 PNO
cycle: 3

Station Type Date Time Source
KAIA TAF 2021/01/15 18:36 UTC NOAA

TAF KAIA 151734Z 1518/1618 32028G40KT P6SM SKC
FM160000 31008KT P6SM SKC
FM160900 30014KT P6SM BKN080

Example: see airport list